»·PEaware :: N210EU KMFR-KOTH

N210EU :: KMFR-KOTH

FLIGHT INFORMATION

Flight Status: Arrived
Operator: Privately registered:
United States
More flights under this callsign
Pilot: Ryan C. (15122)
Aircraft: CESSNA T210 TURBO CENTURION
(T210)
More flights by this aircraft type
Origin: KMFR Rogue Valley Intl-Medford
United States
Destination: KOTH North Bend Mun
United States
More flights between these airports :: More routes between these airports
Route: OED V287 CAMAS
File this flight plan on PilotEdge
Remarks:
Altitude:
(Current/Filed)
8,000ft
Speed:
(Current/Filed)
175kts
Departed: 26-Feb-18 01:52 PM
Arrived: 26-Feb-18 02:39 PM
Distance/Time
Traveled:
87nm/0:47
Distance/Time
To Go:
Arrived

Flight Plot

Page will automatically refresh every two minutes.

Flight plan parsing failed; only flown route is shown


Map Options




Map Legend


Flown Route
Filed Route
Departure Airport
Arrival Airport
Navaid (VOR, NDB)
Fix

Horizontal Profiles

Position Reports

Time Latitude Longitude Heading Altitude Ground
Speed
26-Feb-18 13:42 42.372387 -122.877909 204 1309ft 0kts
26-Feb-18 13:43 42.372387 -122.877909 204 1309ft 0kts
26-Feb-18 13:44 42.372387 -122.877909 204 1309ft 0kts
26-Feb-18 13:45 42.372387 -122.877909 204 1309ft 0kts
26-Feb-18 13:46 42.372387 -122.877909 204 1309ft 0kts
26-Feb-18 13:47 42.372387 -122.877909 204 1309ft 0kts
26-Feb-18 13:48 42.372387 -122.877909 204 1309ft 0kts
26-Feb-18 13:49 42.372387 -122.877909 204 1309ft 0kts
26-Feb-18 13:50 42.372387 -122.877909 204 1309ft 0kts
26-Feb-18 13:51 42.372387 -122.877910 205 1309ft 0kts
26-Feb-18 13:52 42.371150 -122.874608 161 1314ft 15kts
26-Feb-18 13:53 42.368118 -122.871279 157 1320ft 16kts
26-Feb-18 13:54 42.363745 -122.869796 101 1323ft 6kts
26-Feb-18 13:55 42.363977 -122.869745 353 1323ft 0kts
26-Feb-18 13:56 42.363977 -122.869745 353 1323ft 0kts
26-Feb-18 13:57 42.363977 -122.869745 352 1323ft 0kts
26-Feb-18 13:58 42.363570 -122.868545 84 1325ft 0kts
26-Feb-18 13:59 42.371198 -122.871322 335 1425ft 84kts
26-Feb-18 14:00 42.395292 -122.883978 337 2795ft 99kts
26-Feb-18 14:01 42.421644 -122.898821 336 4163ft 107kts
26-Feb-18 14:02 42.452406 -122.907297 348 5405ft 118kts
26-Feb-18 14:03 42.482140 -122.922944 325 6683ft 119kts
26-Feb-18 14:04 42.507232 -122.951581 321 7928ft 120kts
26-Feb-18 14:05 42.537089 -122.989160 320 8010ft 162kts
26-Feb-18 14:06 42.570070 -123.032181 319 8008ft 168kts
26-Feb-18 14:07 42.603046 -123.075604 320 8008ft 165kts
26-Feb-18 14:08 42.633978 -123.116436 320 8007ft 161kts
26-Feb-18 14:09 42.664566 -123.156883 320 8014ft 159kts
26-Feb-18 14:10 42.695680 -123.198081 320 8026ft 160kts
26-Feb-18 14:11 42.727223 -123.239912 321 8043ft 163kts
26-Feb-18 14:12 42.759548 -123.282838 321 8061ft 165kts
26-Feb-18 14:13 42.792364 -123.326481 321 8074ft 168kts
26-Feb-18 14:14 42.825507 -123.370633 321 8081ft 169kts
26-Feb-18 14:15 42.858804 -123.415065 321 8081ft 169kts
26-Feb-18 14:16 42.892274 -123.459794 321 8081ft 169kts
26-Feb-18 14:17 42.925670 -123.504490 321 8080ft 169kts
26-Feb-18 14:18 42.958920 -123.549074 320 8080ft 169kts
26-Feb-18 14:19 42.992218 -123.593797 320 8080ft 168kts
26-Feb-18 14:20 43.022589 -123.641949 306 8080ft 172kts
26-Feb-18 14:21 43.046608 -123.698521 304 7971ft 175kts
26-Feb-18 14:22 43.069952 -123.753326 304 7973ft 172kts
26-Feb-18 14:23 43.092725 -123.806747 304 7977ft 171kts
26-Feb-18 14:24 43.116217 -123.861661 304 7988ft 171kts
26-Feb-18 14:25 43.140394 -123.917673 304 7410ft 170kts
26-Feb-18 14:26 43.164198 -123.972211 304 6998ft 159kts
26-Feb-18 14:27 43.185644 -124.021786 304 6807ft 154kts
26-Feb-18 14:28 43.208192 -124.073099 304 6156ft 159kts
26-Feb-18 14:29 43.239787 -124.109255 333 5473ft 143kts
26-Feb-18 14:30 43.273505 -124.133600 334 4778ft 132kts
26-Feb-18 14:31 43.305011 -124.156266 334 4048ft 124kts
26-Feb-18 14:32 43.334977 -124.177693 334 3302ft 121kts
26-Feb-18 14:33 43.357181 -124.203083 261 2995ft 101kts
26-Feb-18 14:34 43.340196 -124.235108 235 3004ft 136kts
26-Feb-18 14:35 43.315716 -124.277767 235 3001ft 146kts
26-Feb-18 14:36 43.290480 -124.321921 235 3001ft 148kts
26-Feb-18 14:37 43.265118 -124.365445 235 3000ft 145kts
26-Feb-18 14:38 43.279615 -124.405063 323 3000ft 134kts
26-Feb-18 14:39 43.311151 -124.429520 7 3000ft 137kts
26-Feb-18 14:40 43.347433 -124.419045 16 2996ft 126kts
26-Feb-18 14:41 43.367040 -124.376782 57 2175ft 127kts
26-Feb-18 14:42 43.381021 -124.342485 56 1428ft 86kts
26-Feb-18 14:43 43.393085 -124.313238 51 928ft 87kts
26-Feb-18 14:44 43.404711 -124.285138 54 522ft 84kts
26-Feb-18 14:45 43.415681 -124.258248 59 9ft 65kts
26-Feb-18 14:46 43.417607 -124.251124 151 24ft 0kts
26-Feb-18 14:47 43.418910 -124.247282 77 18ft 15kts
26-Feb-18 14:48 43.415547 -124.244244 149 20ft 13kts
26-Feb-18 14:49 43.414710 -124.245038 59 25ft 0kts
26-Feb-18 14:50 43.414710 -124.245038 59 25ft 0kts
26-Feb-18 14:51 43.414710 -124.245038 59 25ft 0kts
26-Feb-18 14:52 43.414710 -124.245038 59 25ft 0kts
26-Feb-18 14:53 43.414710 -124.245038 59 25ft 0kts
26-Feb-18 14:54 43.414710 -124.245038 59 25ft 0kts
26-Feb-18 14:55 43.414710 -124.245038 59 25ft 0kts
26-Feb-18 14:56 43.414710 -124.245038 59 25ft 0kts
26-Feb-18 14:57 43.414710 -124.245038 59 25ft 0kts
26-Feb-18 14:58 43.414710 -124.245038 59 25ft 0kts
26-Feb-18 14:59 43.414710 -124.245038 59 25ft 0kts
26-Feb-18 15:00 43.414710 -124.245038 59 25ft 0kts
26-Feb-18 15:01 43.414710 -124.245038 59 25ft 0kts

Navigation Log

Ident Type
Flight plan parsing failed, navigation log unavailable